createdAt,value
2022-09-06T00:00:32.998Z,23.80
2022-09-06T00:03:22.158Z,23.80
2022-09-06T00:06:13.262Z,23.80
2022-09-06T00:09:02.592Z,23.80
2022-09-06T00:11:53.374Z,23.80
2022-09-06T00:14:43.242Z,23.80
2022-09-06T00:17:32.976Z,23.80
2022-09-06T00:20:22.808Z,23.70
2022-09-06T00:23:12.200Z,23.80
2022-09-06T00:26:05.294Z,23.80
2022-09-06T00:28:55.599Z,23.80
2022-09-06T00:31:44.980Z,23.80
2022-09-06T00:34:34.501Z,23.70
2022-09-06T00:37:24.003Z,23.80
2022-09-06T00:40:14.116Z,23.60
2022-09-06T00:43:03.456Z,23.60
2022-09-06T00:45:55.401Z,23.60
2022-09-06T00:48:46.838Z,23.60
2022-09-06T00:51:37.085Z,23.60
2022-09-06T00:54:27.673Z,23.60
2022-09-06T00:57:18.551Z,23.80
2022-09-06T01:00:10.211Z,23.80
2022-09-06T01:03:01.266Z,23.80
2022-09-06T01:06:00.507Z,23.80
2022-09-06T01:09:03.600Z,23.80
2022-09-06T01:12:18.200Z,23.80
2022-09-06T01:15:23.098Z,23.80
2022-09-06T01:18:26.250Z,23.80
2022-09-06T01:21:25.575Z,23.80
2022-09-06T01:24:39.879Z,23.80
2022-09-06T01:28:05.656Z,23.80
2022-09-06T01:31:04.273Z,23.80
2022-09-06T01:34:01.341Z,23.90
2022-09-06T01:37:09.446Z,23.90
2022-09-06T01:39:59.928Z,23.90
2022-09-06T01:42:53.426Z,23.70
2022-09-06T01:45:56.232Z,23.60
2022-09-06T01:49:00.474Z,23.60
2022-09-06T01:52:03.828Z,23.60
2022-09-06T01:55:04.498Z,23.60
2022-09-06T01:58:09.597Z,23.50
2022-09-06T02:01:04.752Z,23.50
2022-09-06T02:04:02.263Z,23.40
2022-09-06T02:06:56.662Z,23.30
2022-09-06T02:09:50.434Z,23.40
2022-09-06T02:12:43.342Z,23.50
2022-09-06T02:15:36.415Z,23.50
2022-09-06T02:18:30.695Z,23.50
2022-09-06T02:21:25.115Z,23.40
2022-09-06T02:24:19.882Z,23.40
2022-09-06T02:27:09.843Z,23.40
2022-09-06T02:29:59.048Z,23.60
2022-09-06T02:32:57.128Z,23.60
2022-09-06T02:35:48.212Z,23.60
2022-09-06T02:38:41.172Z,23.60
2022-09-06T02:41:32.510Z,23.60
2022-09-06T02:44:22.128Z,23.70
2022-09-06T02:47:11.460Z,23.60
2022-09-06T02:50:02.371Z,23.60
2022-09-06T02:53:04.614Z,23.60
2022-09-06T02:55:53.661Z,23.50
2022-09-06T02:58:43.890Z,23.50
2022-09-06T03:01:32.744Z,23.40
2022-09-06T03:04:22.221Z,23.30
2022-09-06T03:07:12.995Z,23.10
2022-09-06T03:10:02.055Z,23.20
2022-09-06T03:12:51.710Z,23.40
2022-09-06T03:15:41.069Z,23.50
2022-09-06T03:18:32.204Z,23.60
2022-09-06T03:21:21.603Z,23.60
2022-09-06T03:24:11.963Z,23.70
2022-09-06T03:27:00.768Z,23.70
2022-09-06T03:29:49.845Z,23.70
2022-09-06T03:32:38.828Z,23.80
2022-09-06T03:35:28.475Z,23.80
2022-09-06T03:38:17.821Z,23.80
2022-09-06T03:41:08.193Z,23.80
2022-09-06T03:43:58.166Z,23.70
2022-09-06T03:46:47.747Z,23.60
2022-09-06T03:49:36.707Z,23.50
2022-09-06T03:52:26.127Z,23.40
2022-09-06T03:55:15.099Z,23.30
2022-09-06T03:58:05.621Z,23.20
2022-09-06T04:03:51.545Z,23.00
2022-09-06T04:06:40.846Z,23.00
2022-09-06T04:09:29.736Z,23.10
2022-09-06T04:12:19.140Z,23.10
2022-09-06T04:15:11.543Z,23.10
2022-09-06T04:18:00.816Z,23.20
2022-09-06T04:20:50.975Z,23.30
2022-09-06T04:23:40.956Z,23.40
2022-09-06T04:26:30.191Z,23.50
2022-09-06T04:29:19.572Z,23.50
2022-09-06T04:32:10.497Z,23.60
2022-09-06T04:34:59.637Z,23.60
2022-09-06T04:37:48.940Z,23.70
2022-09-06T04:40:38.556Z,23.80
2022-09-06T04:43:28.515Z,23.80
2022-09-06T04:46:22.687Z,23.80
2022-09-06T04:49:13.971Z,23.80
2022-09-06T04:52:03.330Z,23.80
2022-09-06T04:54:52.440Z,23.80
2022-09-06T04:57:45.157Z,23.80
2022-09-06T05:00:39.013Z,23.80
2022-09-06T05:03:27.948Z,23.70
2022-09-06T05:06:22.340Z,23.70
2022-09-06T05:09:11.605Z,23.60
2022-09-06T05:12:00.520Z,23.60
2022-09-06T05:14:50.085Z,23.50
2022-09-06T05:17:39.657Z,23.40
2022-09-06T05:20:28.801Z,23.30
2022-09-06T05:23:19.366Z,23.20
2022-09-06T05:26:08.728Z,23.20
2022-09-06T05:28:58.513Z,23.20
2022-09-06T05:31:48.173Z,23.20
2022-09-06T05:34:37.719Z,23.20
2022-09-06T05:37:27.121Z,23.30
2022-09-06T05:40:17.739Z,23.40
2022-09-06T05:43:06.540Z,23.40
2022-09-06T05:45:56.696Z,23.30
2022-09-06T05:48:46.161Z,23.20
2022-09-06T05:51:35.440Z,23.30
2022-09-06T05:54:24.797Z,23.40
2022-09-06T05:57:15.774Z,23.30
2022-09-06T06:00:06.149Z,23.40
2022-09-06T06:02:54.952Z,23.40
2022-09-06T06:05:48.690Z,23.40
2022-09-06T06:08:38.258Z,23.30
2022-09-06T06:11:28.420Z,23.30
2022-09-06T06:14:18.957Z,23.40
2022-09-06T06:19:58.580Z,22.20
2022-09-06T06:22:47.448Z,23.70
2022-09-06T06:25:36.816Z,23.60
2022-09-06T06:28:26.021Z,23.60
2022-09-06T06:31:16.881Z,23.60
2022-09-06T06:34:06.576Z,23.70
2022-09-06T06:36:55.666Z,23.70
2022-09-06T06:39:45.288Z,23.60
2022-09-06T06:42:34.842Z,23.50
2022-09-06T06:45:24.533Z,23.60
2022-09-06T06:48:15.025Z,23.60
2022-09-06T06:51:04.121Z,23.50
2022-09-06T06:53:56.821Z,23.80
2022-09-06T06:56:46.679Z,23.80
2022-09-06T06:59:35.710Z,23.90
2022-09-06T07:02:25.039Z,23.90
2022-09-06T07:08:25.174Z,24.10
2022-09-06T07:11:15.768Z,24.10
2022-09-06T07:14:05.174Z,24.10
2022-09-06T07:16:59.736Z,24.10
2022-09-06T07:26:15.901Z,24.40
2022-09-06T07:29:07.361Z,24.40
2022-09-06T07:32:13.406Z,24.50
2022-09-06T07:35:02.530Z,24.60
2022-09-06T07:37:55.036Z,24.70
2022-09-06T07:43:35.715Z,24.90
2022-09-06T07:55:13.453Z,25.40
2022-09-06T07:58:04.726Z,25.40
2022-09-06T08:00:53.980Z,25.50
2022-09-06T08:03:43.139Z,25.50
2022-09-06T08:09:44.537Z,25.70
2022-09-06T08:12:33.602Z,25.80
2022-09-06T08:18:13.793Z,25.80
2022-09-06T08:21:12.699Z,25.90
2022-09-06T08:24:03.794Z,25.90
2022-09-06T08:26:52.902Z,26.00
2022-09-06T08:29:41.884Z,26.10
2022-09-06T08:32:34.708Z,26.20
2022-09-06T08:35:24.191Z,26.20
2022-09-06T08:38:13.445Z,26.10
2022-09-06T08:41:11.812Z,26.20
2022-09-06T08:47:16.230Z,26.30
2022-09-06T08:50:09.296Z,26.40
2022-09-06T08:53:16.687Z,26.40
2022-09-06T08:56:15.043Z,26.50
2022-09-06T08:59:06.917Z,26.50
2022-09-06T09:02:05.655Z,26.60
2022-09-06T09:04:58.667Z,26.60
2022-09-06T09:07:53.720Z,26.70
2022-09-06T09:10:46.879Z,26.80
2022-09-06T09:13:41.623Z,26.80
2022-09-06T09:16:30.772Z,26.90
2022-09-06T09:19:20.346Z,27.00
2022-09-06T09:22:09.008Z,27.00
2022-09-06T09:25:00.899Z,27.00
2022-09-06T09:27:57.908Z,27.10
2022-09-06T09:30:49.594Z,27.10
2022-09-06T09:33:40.068Z,27.10
2022-09-06T09:36:29.302Z,27.10
2022-09-06T09:39:19.049Z,27.10
2022-09-06T09:42:10.005Z,27.10
2022-09-06T09:44:58.978Z,27.20
2022-09-06T09:47:48.678Z,27.20
2022-09-06T09:50:38.166Z,27.20
2022-09-06T09:53:27.551Z,27.30
2022-09-06T09:56:17.198Z,27.40
2022-09-06T09:59:22.575Z,27.40
2022-09-06T10:02:21.240Z,27.50
2022-09-06T10:05:21.174Z,27.50
2022-09-06T10:08:13.493Z,27.60
2022-09-06T10:11:03.108Z,27.70
2022-09-06T10:13:53.297Z,27.70
2022-09-06T10:16:47.392Z,27.80
2022-09-06T10:19:44.545Z,27.80
2022-09-06T10:22:37.051Z,28.00
2022-09-06T10:25:46.389Z,28.10
2022-09-06T10:28:41.923Z,28.20
2022-09-06T10:31:45.850Z,28.20
2022-09-06T10:34:59.470Z,28.30
2022-09-06T10:38:04.752Z,28.50
2022-09-06T10:41:07.932Z,28.50
2022-09-06T10:44:04.713Z,28.70
2022-09-06T10:47:01.478Z,28.70
2022-09-06T10:49:55.948Z,28.80
2022-09-06T10:52:49.262Z,29.00
2022-09-06T10:55:44.318Z,29.10
2022-09-06T11:02:01.696Z,29.40
2022-09-06T11:11:17.480Z,29.70
2022-09-06T11:14:10.019Z,29.70
2022-09-06T11:17:03.400Z,29.90
2022-09-06T11:20:04.276Z,30.00
2022-09-06T11:23:31.179Z,30.10
2022-09-06T11:26:42.158Z,30.20
2022-09-06T11:29:33.545Z,30.40
2022-09-06T11:32:36.410Z,30.60
2022-09-06T11:35:32.156Z,30.70
2022-09-06T11:38:28.342Z,30.90
2022-09-06T11:41:19.732Z,31.10
2022-09-06T11:44:10.041Z,31.20
2022-09-06T11:49:50.284Z,31.50
2022-09-06T11:53:03.290Z,31.70
2022-09-06T11:56:11.175Z,31.70
2022-09-06T11:59:06.113Z,31.90
2022-09-06T12:02:03.883Z,32.10
2022-09-06T12:08:33.578Z,32.50
2022-09-06T12:11:35.864Z,32.70
2022-09-06T12:14:32.401Z,32.80
2022-09-06T12:23:01.449Z,33.30
2022-09-06T12:26:01.273Z,33.40
2022-09-06T12:28:52.633Z,33.40
2022-09-06T12:31:44.209Z,33.50
2022-09-06T12:34:36.699Z,33.60
2022-09-06T12:37:35.731Z,33.70
2022-09-06T12:40:26.746Z,33.70
2022-09-06T12:43:19.164Z,33.90
2022-09-06T12:46:09.657Z,33.90
2022-09-06T12:49:03.287Z,33.90
2022-09-06T12:51:52.421Z,34.00
2022-09-06T12:54:47.043Z,33.70
2022-09-06T12:57:35.772Z,33.70
2022-09-06T13:00:29.060Z,33.80
2022-09-06T13:06:26.048Z,33.30
2022-09-06T13:09:20.971Z,33.20
2022-09-06T13:12:16.533Z,33.30
2022-09-06T13:15:11.937Z,33.40
2022-09-06T13:25:50.244Z,33.90
2022-09-06T13:28:41.487Z,34.10
2022-09-06T13:31:32.556Z,34.20
2022-09-06T13:34:23.579Z,34.30
2022-09-06T13:37:13.333Z,34.40
2022-09-06T13:40:05.616Z,34.50
2022-09-06T13:43:02.499Z,34.60
2022-09-06T13:46:06.276Z,34.60
2022-09-06T13:48:55.876Z,34.60
2022-09-06T13:51:45.382Z,34.60
2022-09-06T13:54:38.883Z,34.60
2022-09-06T13:57:28.297Z,34.80
2022-09-06T14:00:17.746Z,34.80
2022-09-06T14:03:08.439Z,34.90
2022-09-06T14:05:57.906Z,34.90
2022-09-06T14:09:06.457Z,34.90
2022-09-06T14:11:56.223Z,34.80
2022-09-06T14:14:45.989Z,34.60
2022-09-06T14:17:37.736Z,34.30
2022-09-06T14:20:28.397Z,34.10
2022-09-06T14:23:17.580Z,34.00
2022-09-06T14:26:07.684Z,34.10
2022-09-06T14:28:58.386Z,34.10
2022-09-06T14:31:48.535Z,34.10
2022-09-06T14:34:37.724Z,34.10
2022-09-06T14:37:28.362Z,34.10
2022-09-06T14:40:19.629Z,34.20
2022-09-06T14:43:09.275Z,34.30
2022-09-06T14:46:04.431Z,34.30
2022-09-06T14:48:58.919Z,34.20
2022-09-06T14:51:48.041Z,34.10
2022-09-06T14:54:38.684Z,34.10
2022-09-06T14:57:28.779Z,34.10
2022-09-06T15:00:18.973Z,34.00
2022-09-06T15:03:07.982Z,33.70
2022-09-06T15:05:57.846Z,33.50
2022-09-06T15:08:48.184Z,33.20
2022-09-06T15:11:40.763Z,32.80
2022-09-06T15:14:30.965Z,32.40
2022-09-06T15:17:20.056Z,32.20
2022-09-06T15:23:15.195Z,31.90
2022-09-06T15:26:09.730Z,31.70
2022-09-06T15:37:29.189Z,31.10
2022-09-06T15:40:21.801Z,31.00
2022-09-06T15:43:10.857Z,30.90
2022-09-06T15:46:02.504Z,30.90
2022-09-06T15:48:53.998Z,30.80
2022-09-06T15:51:43.609Z,30.80
2022-09-06T15:54:52.298Z,30.90
2022-09-06T15:57:41.497Z,31.20
2022-09-06T16:03:23.038Z,31.40
2022-09-06T16:09:18.006Z,31.40
2022-09-06T16:12:07.517Z,31.30
2022-09-06T16:14:56.919Z,31.10
2022-09-06T16:17:46.244Z,31.00
2022-09-06T16:20:40.231Z,30.80
2022-09-06T16:23:29.590Z,30.80
2022-09-06T16:26:21.540Z,30.80
2022-09-06T16:29:12.986Z,30.70
2022-09-06T16:32:01.754Z,30.50
2022-09-06T16:37:41.946Z,30.40
2022-09-06T16:40:31.291Z,30.30
2022-09-06T17:08:48.041Z,29.90
2022-09-06T17:11:40.233Z,29.90
2022-09-06T17:14:30.425Z,29.80
2022-09-06T17:17:19.862Z,29.70
2022-09-06T17:20:09.943Z,29.70
2022-09-06T17:22:58.982Z,29.70
2022-09-06T17:25:47.896Z,29.60
2022-09-06T17:28:40.894Z,29.60
2022-09-06T17:31:30.612Z,29.50
2022-09-06T17:34:19.589Z,29.50
2022-09-06T17:37:09.475Z,29.50
2022-09-06T17:39:58.335Z,29.40
2022-09-06T18:14:04.391Z,29.20
2022-09-06T18:16:54.018Z,29.10
2022-09-06T18:19:45.063Z,29.10
2022-09-06T18:22:34.142Z,29.00
2022-09-06T18:25:23.254Z,28.90
2022-09-06T18:28:12.557Z,28.90
2022-09-06T18:31:02.417Z,28.90
2022-09-06T18:33:52.099Z,28.90
2022-09-06T18:36:42.666Z,28.80
2022-09-06T18:39:31.755Z,28.80
2022-09-06T18:42:21.254Z,28.70
2022-09-06T18:45:11.503Z,28.70
2022-09-06T18:48:01.081Z,28.70
2022-09-06T18:50:49.946Z,28.70
2022-09-06T18:53:44.520Z,28.70
2022-09-06T18:56:34.427Z,28.60
2022-09-06T18:59:23.559Z,28.60
2022-09-06T19:02:12.457Z,28.50
2022-09-06T19:05:01.904Z,28.50
2022-09-06T19:07:51.177Z,28.50
2022-09-06T19:10:42.043Z,28.50
2022-09-06T19:13:32.723Z,28.50
2022-09-06T19:16:24.024Z,28.50
2022-09-06T19:19:13.763Z,28.40
2022-09-06T19:22:03.126Z,28.40
2022-09-06T19:24:52.414Z,28.40
2022-09-06T19:27:48.541Z,28.40
2022-09-06T19:30:38.013Z,28.40
2022-09-06T19:33:27.443Z,28.40
2022-09-06T19:36:17.887Z,28.30
2022-09-06T19:39:09.265Z,28.40
2022-09-06T19:41:59.090Z,28.30
2022-09-06T19:44:49.928Z,28.30
2022-09-06T19:47:39.775Z,28.30
2022-09-06T19:50:28.833Z,28.30
2022-09-06T19:53:18.004Z,28.30
2022-09-06T19:56:12.410Z,28.30
2022-09-06T19:59:03.224Z,28.30
2022-09-06T20:01:54.215Z,28.30
2022-09-06T20:04:43.327Z,28.20
2022-09-06T20:07:33.072Z,28.20
2022-09-06T20:10:22.035Z,28.20
2022-09-06T20:13:11.466Z,28.20
2022-09-06T20:16:01.233Z,28.20
2022-09-06T20:18:52.405Z,28.20
2022-09-06T20:21:41.601Z,28.20
2022-09-06T20:24:30.503Z,28.30
2022-09-06T20:27:19.917Z,28.30
2022-09-06T20:30:09.629Z,28.20
2022-09-06T20:32:59.463Z,28.20
2022-09-06T20:36:03.109Z,28.10
2022-09-06T20:38:52.916Z,28.00
2022-09-06T20:41:43.112Z,28.00
2022-09-06T20:44:32.167Z,28.00
2022-09-06T20:47:21.879Z,28.00
2022-09-06T20:50:12.364Z,28.00
2022-09-06T20:53:02.703Z,28.00
2022-09-06T20:55:58.063Z,28.00
2022-09-06T20:58:50.240Z,28.00
2022-09-06T21:01:41.822Z,28.00
2022-09-06T21:04:31.458Z,28.00
2022-09-06T21:07:20.082Z,27.90
2022-09-06T21:10:11.986Z,27.90
2022-09-06T21:13:01.217Z,27.80
2022-09-06T21:15:50.334Z,27.80
2022-09-06T21:18:39.263Z,27.80
2022-09-06T21:21:29.803Z,27.80
2022-09-06T21:24:19.186Z,27.70
2022-09-06T21:27:12.359Z,27.60
2022-09-06T21:30:01.424Z,27.60
2022-09-06T21:32:50.759Z,27.60
2022-09-06T21:35:40.291Z,27.60
2022-09-06T21:38:29.977Z,27.60
2022-09-06T21:41:20.858Z,27.60
2022-09-06T21:44:12.686Z,27.60
2022-09-06T21:47:02.800Z,27.60
2022-09-06T21:49:52.032Z,27.60
2022-09-06T21:52:41.095Z,27.50
2022-09-06T21:55:32.866Z,27.50
2022-09-06T21:58:22.140Z,27.50
2022-09-06T22:01:12.909Z,27.40
2022-09-06T22:04:02.625Z,27.40
2022-09-06T22:06:52.176Z,27.30
2022-09-06T22:09:41.561Z,27.30
2022-09-06T22:12:30.778Z,27.20
2022-09-06T22:15:21.867Z,27.20
2022-09-06T22:18:13.654Z,27.20
2022-09-06T22:21:03.734Z,27.30
2022-09-06T22:23:53.406Z,27.30
2022-09-06T22:26:43.442Z,27.30
2022-09-06T22:29:33.099Z,27.30
2022-09-06T22:32:24.302Z,27.30
2022-09-06T22:35:14.952Z,27.20
2022-09-06T22:38:04.670Z,27.20
2022-09-06T22:43:44.196Z,27.10
2022-09-06T22:46:34.480Z,27.00
2022-09-06T22:49:23.727Z,27.00
2022-09-06T22:52:14.604Z,26.80
2022-09-06T22:55:04.561Z,26.80
2022-09-06T22:57:53.951Z,26.70
2022-09-06T23:00:43.093Z,26.50
2022-09-06T23:03:32.836Z,26.50
2022-09-06T23:06:21.913Z,26.50
2022-09-06T23:09:12.612Z,26.60
2022-09-06T23:12:01.826Z,26.70
2022-09-06T23:14:51.373Z,26.80
2022-09-06T23:17:40.989Z,26.80
2022-09-06T23:20:30.071Z,26.80
2022-09-06T23:23:19.295Z,26.80
2022-09-06T23:26:11.672Z,26.80
2022-09-06T23:29:01.538Z,26.80
2022-09-06T23:31:50.844Z,26.60
2022-09-06T23:34:40.536Z,26.50
2022-09-06T23:37:29.900Z,26.40
2022-09-06T23:40:19.069Z,26.50
2022-09-06T23:43:09.640Z,26.40
2022-09-06T23:45:59.127Z,26.30
2022-09-06T23:48:49.062Z,26.30
2022-09-06T23:51:37.939Z,26.30
2022-09-06T23:54:27.057Z,26.40
2022-09-06T23:57:16.322Z,26.50
